Impacts TAF Board
For situational awareness. Not to be used for flight planning purposes.
IDs:

KPHL - Philadelphia Intl, PA, US

Issued at 0857 UTC 17 Feb 2019
Updated at 1023 UTC 17 Feb 2019
Potential Impact None Slight Moderate High
Time0954Z 17/11Z 17/12Z 17/13Z 17/14Z 17/15Z 17/16Z 17/17Z 17/18Z 17/19Z 17/20Z 17/21Z 17/22Z 17/23Z>>
Type OBS PRVL PRVL PRVL PRVL PRVL PRVL PRVL PRVL PRVL PRVL PRVL PRVL PRVL
VIS 10 >6 >6 >6 >6 >6 >6 >6 >6 >6 >6 >6 >6 >6
CIG -- -- -- -- -- -- -- -- -- 150 150 150 150 150
Cover FEW SKC SKC SKC SKC SKC SKC SKC SKC BKN BKN BKN BKN BKN
FltCat VFR VFR VFR VFR VFR VFR VFR VFR VFR VFR VFR VFR VFR VFR
WX -- -- -- -- -- -- -- -- -- -- -- -- -- --
WDir 350 10 10 10 10 10 10 10 10 VRB VRB VRB VRB VRB
WSpd 7 9 9 9 9 9 9 9 9 3 3 3 3 3
WGst -- -- -- -- -- -- -- -- -- -- -- -- -- --
Raw TAF
KPHL 170857Z 1709/1812 01009KT P6SM SKC
  FM171900 VRB03KT P6SM BKN150
  FM180000 13006KT P6SM OVC030
  FM180200 12005KT 3SM -PLRA OVC008
  FM180500 11005KT 2SM -RA BR OVC006
  FM181000 VRB04KT 3SM BR OVC003


Raw METAR
KPHL 170954Z 35007KT 10SM FEW250 M03/M09 A3009 RMK AO2 SLP188 T10281094 $
KPHL 170854Z 01010KT 10SM FEW250 M02/M09 A3008 RMK AO2 SLP185 T10221094 50003 $
KPHL 170754Z 35009KT 10SM CLR M02/M09 A3009 RMK AO2 SLP189 T10171094 $

METAR Board
Radar Display
Forecast Discussion
For situational awareness. Not to be used for flight planning purposes.